OOCL Oakland — 3EKJ6 — position and weather

sailwx.info

Track history (hours):
 
Tides and Currents Weather Stations Pressure Air Temp Water Temp Dewpoint Dewpoint Depression Visibility Wind Speed Wind Dir Waves Ship Positions

OOCL Oakland

Last reported at 2014-Oct-02 12:29 UTC. Time now 2014-Oct-02 12:43 UTC.
Position N 31°20' E 121°39'.

Length 280 m; draft 11.6 m.

Type: Ship. MMSI: 372703235.

Date/timePositionNaut miles runAvg speedWind from/ knotsBaromVisibWave heightAir tempDewpointWater temp
2014-Oct-02 12:29N 31°20' E 121°39'0 0.0
2014-Oct-02 09:17N 31°20' E 121°39'0 0.2
2014-Oct-02 08:31N 31°20' E 121°39'6 5.8
2014-Oct-02 07:32N 31°18' E 121°45'29 9.5
2014-Oct-02 04:27N 31°07' E 122°17'18 9.4
2014-Oct-02 02:32N 31°06' E 122°38'8 5.5
2014-Oct-02 01:07N 31°08' E 122°47'1 0.1
2014-Oct-01 10:18N 31°07' E 122°47'1013.4
2014-Oct-01 09:33N 30°57' E 122°51'1514.4
2014-Oct-01 08:32N 30°43' E 122°55'1413.6
2014-Oct-01 07:31N 30°29' E 122°58'1313.2
2014-Oct-01 06:32N 30°16' E 122°59'1312.9
2014-Oct-01 05:33N 30°04' E 122°55'1712.8
2014-Oct-01 04:14N 29°52' E 122°41'912.8
2014-Oct-01 03:33N 29°47' E 122°33'1212.0
2014-Oct-01 02:33N 29°45' E 122°19'1211.8
2014-Oct-01 01:33N 29°54' E 122°11'1212.0
2014-Oct-01 00:33N 29°58' E 121°58'7 5.3
2014-Sep-30 23:19N 29°57' E 121°50'0 0.0
2014-Sep-30 22:31N 29°57' E 121°50'0 0.0
2014-Sep-30 21:31N 29°57' E 121°50'0 0.0
2014-Sep-30 20:07N 29°57' E 121°50'0 0.0
2014-Sep-30 18:31N 29°57' E 121°50'0 0.0
2014-Sep-30 17:19N 29°57' E 121°50'0 0.0
2014-Sep-30 16:31N 29°57' E 121°50'0 0.0
2014-Sep-30 15:19N 29°57' E 121°50'0 0.0
2014-Sep-30 14:31N 29°57' E 121°50'0 0.0
2014-Sep-30 13:19N 29°57' E 121°50'0 0.0
2014-Sep-30 12:31N 29°57' E 121°50'0 0.0
2014-Sep-30 11:25N 29°57' E 121°50'0 0.0
2014-Sep-30 10:19N 29°57' E 121°50'0 0.0
2014-Sep-30 09:31N 29°57' E 121°50'0 0.0
2014-Sep-30 08:33N 29°57' E 121°50'6 5.7
2014-Sep-30 07:33N 29°59' E 121°56'1212.5
2014-Sep-30 06:34N 29°55' E 122°10'1211.9
2014-Sep-30 05:32N 29°45' E 122°18'7 7.0
2014-Sep-30 04:34N 29°45' E 122°26'0 0.1
2014-Sep-30 03:28N 29°45' E 122°26'0 0.0
2014-Sep-30 02:28N 29°45' E 122°26'0 0.0
2014-Sep-30 01:28N 29°45' E 122°26'0 0.1
2014-Sep-30 00:28N 29°45' E 122°26'0 0.1
2014-Sep-29 23:28N 29°44' E 122°26'0 0.0
2014-Sep-29 22:28N 29°44' E 122°26'0 0.1
2014-Sep-29 21:22N 29°45' E 122°26'0 0.0
2014-Sep-29 20:28N 29°45' E 122°26'0 0.1
2014-Sep-29 19:28N 29°45' E 122°26'0 0.1
2014-Sep-29 18:28N 29°45' E 122°26'0 0.1
2014-Sep-29 17:22N 29°45' E 122°26'0 0.1
2014-Sep-29 16:28N 29°45' E 122°26'0 0.1
2014-Sep-29 15:33N 29°45' E 122°26'0 0.1
2014-Sep-29 14:33N 29°45' E 122°26'0 0.3
2014-Sep-29 13:33N 29°45' E 122°27'5 5.3
2014-Sep-29 12:33N 29°45' E 122°33'1313.2
2014-Sep-29 11:33N 29°50' E 122°47'  
Track history (hours):
 
Tides and Currents Weather Stations Pressure Air Temp Water Temp Dewpoint Dewpoint Depression Visibility Wind Speed Wind Dir Waves Ship Positions

OOCL Oakland

Last reported at 2014-Oct-02 12:29 UTC. Time now 2014-Oct-02 12:43 UTC.
Position N 31°20' E 121°39'.

Length 280 m; draft 11.6 m.

Type: Ship. MMSI: 372703235.

Date/timePositionNaut miles runAvg speedWind from/ knotsBaromVisibWave heightAir tempDewpointWater temp
2014-Oct-02 12:29N 31°20' E 121°39'0 0.0
2014-Oct-02 09:17N 31°20' E 121°39'0 0.2
2014-Oct-02 08:31N 31°20' E 121°39'6 5.8
2014-Oct-02 07:32N 31°18' E 121°45'29 9.5
2014-Oct-02 04:27N 31°07' E 122°17'18 9.4
2014-Oct-02 02:32N 31°06' E 122°38'8 5.5
2014-Oct-02 01:07N 31°08' E 122°47'1 0.1
2014-Oct-01 10:18N 31°07' E 122°47'1013.4
2014-Oct-01 09:33N 30°57' E 122°51'1514.4
2014-Oct-01 08:32N 30°43' E 122°55'1413.6
2014-Oct-01 07:31N 30°29' E 122°58'1313.2
2014-Oct-01 06:32N 30°16' E 122°59'1312.9
2014-Oct-01 05:33N 30°04' E 122°55'1712.8
2014-Oct-01 04:14N 29°52' E 122°41'912.8
2014-Oct-01 03:33N 29°47' E 122°33'1212.0
2014-Oct-01 02:33N 29°45' E 122°19'1211.8
2014-Oct-01 01:33N 29°54' E 122°11'1212.0
2014-Oct-01 00:33N 29°58' E 121°58'7 5.3
2014-Sep-30 23:19N 29°57' E 121°50'0 0.0
2014-Sep-30 22:31N 29°57' E 121°50'0 0.0
2014-Sep-30 21:31N 29°57' E 121°50'0 0.0
2014-Sep-30 20:07N 29°57' E 121°50'0 0.0
2014-Sep-30 18:31N 29°57' E 121°50'0 0.0
2014-Sep-30 17:19N 29°57' E 121°50'0 0.0
2014-Sep-30 16:31N 29°57' E 121°50'0 0.0
2014-Sep-30 15:19N 29°57' E 121°50'0 0.0
2014-Sep-30 14:31N 29°57' E 121°50'0 0.0
2014-Sep-30 13:19N 29°57' E 121°50'0 0.0
2014-Sep-30 12:31N 29°57' E 121°50'0 0.0
2014-Sep-30 11:25N 29°57' E 121°50'0 0.0
2014-Sep-30 10:19N 29°57' E 121°50'0 0.0
2014-Sep-30 09:31N 29°57' E 121°50'0 0.0
2014-Sep-30 08:33N 29°57' E 121°50'6 5.7
2014-Sep-30 07:33N 29°59' E 121°56'1212.5
2014-Sep-30 06:34N 29°55' E 122°10'1211.9
2014-Sep-30 05:32N 29°45' E 122°18'7 7.0
2014-Sep-30 04:34N 29°45' E 122°26'0 0.1
2014-Sep-30 03:28N 29°45' E 122°26'0 0.0
2014-Sep-30 02:28N 29°45' E 122°26'0 0.0
2014-Sep-30 01:28N 29°45' E 122°26'0 0.1
2014-Sep-30 00:28N 29°45' E 122°26'0 0.1
2014-Sep-29 23:28N 29°44' E 122°26'0 0.0
2014-Sep-29 22:28N 29°44' E 122°26'0 0.1
2014-Sep-29 21:22N 29°45' E 122°26'0 0.0
2014-Sep-29 20:28N 29°45' E 122°26'0 0.1
2014-Sep-29 19:28N 29°45' E 122°26'0 0.1
2014-Sep-29 18:28N 29°45' E 122°26'0 0.1
2014-Sep-29 17:22N 29°45' E 122°26'0 0.1
2014-Sep-29 16:28N 29°45' E 122°26'0 0.1
2014-Sep-29 15:33N 29°45' E 122°26'0 0.1
2014-Sep-29 14:33N 29°45' E 122°26'0 0.3
2014-Sep-29 13:33N 29°45' E 122°27'5 5.3
2014-Sep-29 12:33N 29°45' E 122°33'1313.2
2014-Sep-29 11:33N 29°50' E 122°47'  

Dump ship's entire track history